Time;durP1;ratioP1;P1;durP2;ratioP2;P2;SDS_P1;SDS_P2;PMS_P1;PMS_P2;Temp;Humidity;BMP_temperature;BMP_pressure;BME280_temperature;BME280_humidity;BME280_pressure;Samples;Min_cycle;Max_cycle;Signal;HPM_P1;HPM_P2
2021/06/23 00:02:22;;;;;;;15.30;4.80;;;17.70;99.90;;;18.06;53.78;102009.00;5115709;28;20393;-68
2021/06/23 00:04:52;;;;;;;11.00;4.40;;;17.70;99.90;;;18.03;53.53;102006.38;5115750;28;20044;-68
2021/06/23 00:07:21;;;;;;;13.50;5.20;;;17.70;99.90;;;18.01;53.79;102005.53;5115804;28;20050;-68
2021/06/23 00:09:49;;;;;;;11.70;5.07;;;17.70;99.90;;;17.95;53.32;102000.25;5115767;28;20047;-68
2021/06/23 00:12:18;;;;;;;11.07;4.22;;;17.60;99.90;;;17.70;54.01;101950.72;5115631;28;20126;-68
2021/06/23 00:14:48;;;;;;;15.48;4.90;;;17.60;99.90;;;17.93;53.91;102002.97;5093612;28;20101;-68
2021/06/23 00:17:16;;;;;;;14.05;4.55;;;17.60;99.90;;;17.92;53.97;102000.34;5095576;28;20082;-68
2021/06/23 00:19:45;;;;;;;10.35;4.68;;;17.60;99.90;;;17.98;53.65;102001.09;5095084;28;20139;-68
2021/06/23 00:22:14;;;;;;;10.43;4.20;;;17.60;99.90;;;17.99;54.04;102002.88;5095051;28;20044;-68
2021/06/23 00:24:42;;;;;;;13.02;4.75;;;17.60;99.90;;;17.98;53.71;102008.25;5094828;28;20405;-68
2021/06/23 00:27:11;;;;;;;10.55;4.65;;;17.60;99.90;;;17.99;53.49;102010.00;5095061;28;20082;-68
2021/06/23 00:29:39;;;;;;;17.05;4.50;;;17.60;99.90;;;17.97;53.80;102014.50;5094936;28;20052;-68
2021/06/23 00:32:13;;;;;;;12.20;4.18;;;17.60;99.90;;;17.96;53.66;102012.75;5094902;28;20040;-68
2021/06/23 00:34:41;;;;;;;11.48;4.32;;;17.60;99.90;;;17.82;53.90;102006.72;5094122;28;20058;-68
2021/06/23 00:37:10;;;;;;;12.02;4.82;;;17.60;99.90;;;18.00;54.08;102017.16;5094325;28;20058;-68
2021/06/23 00:39:39;;;;;;;10.13;4.30;;;17.60;99.90;;;17.98;54.17;102013.63;5094782;28;20040;-68
2021/06/23 00:42:10;;;;;;;8.32;4.15;;;17.60;99.90;;;18.01;54.06;102017.13;5093580;28;20051;-68
2021/06/23 00:44:41;;;;;;;9.32;4.30;;;17.60;99.90;;;18.04;54.10;102005.47;5094725;28;20048;-68
2021/06/23 00:47:11;;;;;;;13.57;4.55;;;17.70;99.90;;;18.02;54.00;102012.66;5110469;28;20115;-68
2021/06/23 00:49:39;;;;;;;11.25;4.32;;;17.60;99.90;;;17.97;54.19;102009.16;5094556;28;20047;-68
2021/06/23 00:52:28;;;;;;;14.05;4.13;;;17.70;99.90;;;18.00;54.06;102006.44;5076491;28;20060;-68
2021/06/23 00:55:07;;;;;;;10.93;4.80;;;17.70;99.90;;;17.96;54.66;102008.25;5094773;28;20052;-68
2021/06/23 00:57:41;;;;;;;14.20;4.68;;;17.60;99.90;;;18.00;54.86;102019.84;5110062;28;20501;-68
2021/06/23 01:00:11;;;;;;;9.13;4.10;;;17.60;99.90;;;18.02;54.88;102020.69;5093055;28;20257;-68
2021/06/23 01:02:42;;;;;;;9.82;3.97;;;17.70;99.90;;;18.02;54.58;102018.88;5093006;28;20048;-67
2021/06/23 01:05:12;;;;;;;12.68;4.60;;;17.70;99.90;;;18.00;54.31;102015.34;5094367;28;20050;-68
2021/06/23 01:07:40;;;;;;;13.07;4.82;;;17.70;99.90;;;17.98;54.00;102019.84;5092980;28;20139;-68
2021/06/23 01:10:11;;;;;;;11.55;4.40;;;17.60;99.90;;;18.00;54.52;102009.97;5094193;28;20058;-67
2021/06/23 01:13:02;;;;;;;10.32;4.38;;;17.70;99.90;;;17.94;54.90;102017.25;5109887;28;20048;-68
2021/06/23 01:15:31;;;;;;;10.75;4.45;;;17.60;99.90;;;17.97;55.15;102019.88;5109652;28;20056;-68
2021/06/23 01:18:05;;;;;;;11.38;4.20;;;17.60;99.90;;;17.95;55.11;102019.00;5092941;28;20130;-68
2021/06/23 01:20:34;;;;;;;13.43;4.65;;;17.60;99.90;;;17.91;54.86;102019.97;5094249;28;20477;-68
2021/06/23 01:23:05;;;;;;;15.13;4.57;;;17.60;99.90;;;17.98;55.11;102016.31;5092560;28;20520;-68
2021/06/23 01:25:33;;;;;;;14.20;4.93;;;17.60;99.90;;;17.98;55.36;102013.63;5093800;28;20047;-67
2021/06/23 01:28:02;;;;;;;14.82;4.88;;;17.70;99.90;;;17.91;55.48;102009.25;5092530;28;20493;-68
2021/06/23 01:30:38;;;;;;;13.10;5.05;;;17.60;99.90;;;17.89;55.38;102005.72;5092584;28;20051;-67
2021/06/23 01:33:19;;;;;;;12.05;4.65;;;17.60;99.90;;;17.90;55.27;102003.00;5092213;28;20083;-68
2021/06/23 01:35:48;;;;;;;11.73;4.57;;;17.50;99.90;;;17.92;55.58;102011.91;5092744;28;20121;-68
2021/06/23 01:38:18;;;;;;;11.02;4.47;;;17.50;99.90;;;17.95;55.73;102005.63;5092341;28;20040;-67
2021/06/23 01:40:48;;;;;;;15.20;5.10;;;17.60;99.90;;;17.93;55.61;101997.63;5092374;28;20078;-68
2021/06/23 01:43:17;;;;;;;12.90;4.75;;;17.60;99.90;;;17.87;55.85;101994.16;5092245;28;20052;-67
2021/06/23 01:45:46;;;;;;;13.70;4.57;;;17.50;99.90;;;17.88;55.70;101998.63;5109408;28;20142;-68
2021/06/23 01:48:16;;;;;;;14.20;5.20;;;17.60;99.90;;;17.81;55.88;101986.22;5091137;28;20501;-67
2021/06/23 01:50:53;;;;;;;10.85;5.00;;;17.50;99.90;;;17.83;56.27;101992.44;5093598;28;20040;-68
2021/06/23 01:53:24;;;;;;;8.90;4.32;;;17.50;99.90;;;17.69;56.46;101984.63;5092165;28;20131;-68
2021/06/23 01:55:54;;;;;;;13.70;5.10;;;17.50;99.90;;;17.75;56.75;101997.03;5093300;28;20075;-67
2021/06/23 01:58:24;;;;;;;14.55;4.57;;;17.40;99.90;;;17.69;56.88;101981.94;5092013;28;20066;-68
2021/06/23 02:01:16;;;;;;;10.18;4.32;;;17.40;99.90;;;17.77;56.37;101989.84;5091757;28;20459;-67
2021/06/23 02:04:11;;;;;;;9.88;4.43;;;17.40;99.90;;;17.71;56.47;101992.66;5092011;28;20083;-67
2021/06/23 02:07:23;;;;;;;14.40;5.03;;;17.30;99.90;;;17.72;56.85;101992.63;5091934;28;20143;-68
2021/06/23 02:10:21;;;;;;;12.20;4.38;;;17.40;99.90;;;17.74;56.45;101997.94;5108885;28;20555;-67
2021/06/23 02:14:21;;;;;;;11.88;4.35;;;17.40;99.90;;;17.72;56.56;102002.44;5069288;28;20052;-68
2021/06/23 02:17:05;;;;;;;9.80;4.38;;;17.30;99.90;;;17.73;56.43;101997.03;5088460;28;20056;-68
2021/06/23 02:19:39;;;;;;;10.65;4.60;;;17.40;99.90;;;17.77;56.73;102006.81;5072742;28;20043;-67
2021/06/23 02:22:19;;;;;;;15.35;4.68;;;17.40;99.90;;;17.74;56.90;101997.94;5071749;28;20047;-67
2021/06/23 02:24:56;;;;;;;9.55;4.35;;;17.40;99.90;;;17.60;56.74;101981.19;5088462;28;20048;-68
2021/06/23 02:27:32;;;;;;;12.57;4.55;;;17.40;99.90;;;17.04;56.69;101896.44;5071238;28;20049;-68
2021/06/23 02:30:03;;;;;;;10.70;4.80;;;17.30;99.90;;;17.71;56.65;102012.25;5071538;28;20127;-68
2021/06/23 02:32:35;;;;;;;11.75;4.35;;;17.30;99.90;;;17.76;57.29;102017.53;5071789;28;20052;-68
2021/06/23 02:35:09;;;;;;;10.02;4.00;;;17.30;99.90;;;17.74;56.67;102019.34;5071115;28;20147;-67
2021/06/23 02:37:46;;;;;;;10.35;4.55;;;17.40;99.90;;;17.66;56.98;102014.13;5071636;28;20102;-67
2021/06/23 02:40:16;;;;;;;12.50;4.32;;;17.30;99.90;;;17.61;57.28;102017.78;5071442;28;20122;-68
2021/06/23 02:42:55;;;;;;;10.48;4.43;;;17.30;99.90;;;17.54;57.74;102013.41;5071327;28;20049;-68
2021/06/23 02:45:24;;;;;;;11.93;4.30;;;17.20;99.90;;;17.69;57.46;102023.91;5071414;28;20117;-68
2021/06/23 02:47:54;;;;;;;11.98;4.00;;;17.30;99.90;;;17.66;57.49;102029.28;5072669;28;20101;-67
2021/06/23 02:50:50;;;;;;;9.98;3.70;;;17.30;99.90;;;17.60;56.86;102029.38;5071442;28;20044;-68
2021/06/23 02:53:29;;;;;;;7.95;4.35;;;17.20;99.90;;;17.60;56.30;102032.94;5072590;28;20068;-68
2021/06/23 02:55:59;;;;;;;10.45;4.15;;;17.20;99.90;;;17.37;56.23;101983.31;5071279;28;20048;-68
2021/06/23 02:58:38;;;;;;;14.80;4.75;;;17.30;99.90;;;17.64;55.97;102033.78;5071978;28;20080;-68
2021/06/23 03:01:07;;;;;;;12.55;4.53;;;17.30;99.90;;;17.65;56.12;102043.59;5092116;28;20044;-68
2021/06/23 03:03:45;;;;;;;9.57;3.85;;;17.30;99.90;;;17.64;55.97;102045.38;5074991;28;20059;-68
2021/06/23 03:06:14;;;;;;;10.57;4.15;;;17.30;99.90;;;17.64;55.72;102039.13;5091959;28;20044;-67
2021/06/23 03:08:44;;;;;;;9.05;4.28;;;17.30;99.90;;;17.63;55.65;102037.38;5076332;28;20424;-67
2021/06/23 03:11:20;;;;;;;11.02;4.15;;;17.30;99.90;;;17.67;55.41;102031.94;5092432;28;20060;-68
2021/06/23 03:14:28;;;;;;;10.43;4.50;;;17.30;99.90;;;17.60;55.47;102027.59;5067964;28;20051;-67
2021/06/23 03:16:58;;;;;;;11.50;4.20;;;17.30;99.90;;;17.63;55.55;102040.03;5115640;28;20454;-68
2021/06/23 03:19:27;;;;;;;10.60;4.07;;;17.30;99.90;;;17.65;55.67;102048.94;5098466;28;20051;-68
2021/06/23 03:21:56;;;;;;;14.07;4.70;;;17.30;99.90;;;17.66;55.63;102045.34;5116642;28;20071;-68
2021/06/23 03:24:28;;;;;;;7.43;3.80;;;17.30;99.90;;;17.56;55.81;102024.97;5115294;28;20500;-67
2021/06/23 03:27:04;;;;;;;13.77;4.40;;;17.30;99.90;;;17.64;55.65;102044.47;5115292;28;20055;-68
2021/06/23 03:29:36;;;;;;;11.52;3.97;;;17.30;99.90;;;17.63;55.55;102040.03;5098256;28;20063;-68
2021/06/23 03:32:09;;;;;;;10.35;3.92;;;17.30;99.90;;;17.65;55.71;102038.25;5116611;28;20036;-68
2021/06/23 03:34:40;;;;;;;11.48;4.18;;;17.20;99.90;;;17.59;55.76;102039.22;5115249;28;20071;-68
2021/06/23 03:37:10;;;;;;;11.65;4.25;;;17.20;99.90;;;17.68;55.46;102048.88;5098167;28;20489;-68
2021/06/23 03:39:43;;;;;;;13.95;4.32;;;17.20;99.90;;;17.71;55.73;102047.03;5098116;28;20055;-68
2021/06/23 03:42:12;;;;;;;12.63;4.30;;;17.30;99.90;;;17.59;55.92;102041.00;5116347;28;20066;-68
2021/06/23 03:44:44;;;;;;;14.48;4.15;;;17.30;99.90;;;17.57;55.74;102051.72;5097915;28;20071;-68
2021/06/23 03:47:16;;;;;;;13.27;4.60;;;17.20;99.90;;;17.61;55.29;102048.09;5098107;28;20063;-68
2021/06/23 03:49:47;;;;;;;7.85;3.85;;;17.20;99.90;;;17.62;55.67;102054.31;5098182;28;20441;-68
2021/06/23 03:52:15;;;;;;;10.35;3.80;;;17.30;99.90;;;17.61;55.18;102053.47;5097451;28;20134;-68
2021/06/23 03:54:48;;;;;;;9.90;3.85;;;17.30;99.90;;;17.51;55.32;102053.59;5114743;28;20138;-68
2021/06/23 03:57:16;;;;;;;12.48;4.30;;;17.30;99.90;;;17.60;55.02;102050.78;5097365;28;20071;-68
2021/06/23 03:59:46;;;;;;;11.77;4.22;;;17.30;99.90;;;17.52;54.85;102052.66;5097689;28;20155;-68
2021/06/23 04:02:15;;;;;;;8.90;3.90;;;17.20;99.90;;;17.52;55.41;102066.06;5097655;28;20135;-68
2021/06/23 04:04:45;;;;;;;10.88;4.28;;;17.20;99.90;;;17.54;55.61;102050.84;5097484;28;20079;-68
2021/06/23 04:07:23;;;;;;;9.38;4.47;;;17.20;99.90;;;17.56;55.45;102059.75;5097771;28;20079;-68
2021/06/23 04:09:51;;;;;;;14.27;4.47;;;17.20;99.90;;;17.58;55.65;102052.59;5115465;28;20048;-68
2021/06/23 04:12:25;;;;;;;10.95;3.80;;;17.20;99.90;;;17.48;55.69;102043.81;5097563;28;20051;-68
2021/06/23 04:14:55;;;;;;;8.50;4.43;;;17.20;99.90;;;17.55;55.42;102063.34;5115502;28;20138;-68
2021/06/23 04:17:23;;;;;;;12.23;4.77;;;17.20;99.90;;;17.56;55.41;102057.06;5097568;28;20120;-68
2021/06/23 04:19:53;;;;;;;12.93;4.60;;;17.20;99.90;;;17.60;55.79;102066.84;5115811;28;20063;-68
2021/06/23 04:22:28;;;;;;;15.77;4.93;;;17.20;99.90;;;17.53;55.63;102070.50;5097269;28;20047;-68
2021/06/23 04:25:10;;;;;;;9.25;4.10;;;17.20;99.90;;;17.51;55.47;102042.91;5097317;28;20061;-68
2021/06/23 04:27:39;;;;;;;13.38;4.22;;;17.20;99.90;;;17.66;55.38;102066.75;5097080;28;20051;-68
2021/06/23 04:30:13;;;;;;;10.38;4.13;;;17.30;99.90;;;17.07;55.67;101956.09;5097317;28;20051;-68
2021/06/23 04:32:42;;;;;;;10.88;4.07;;;17.30;99.90;;;17.64;55.65;102060.53;5115342;28;20047;-68
2021/06/23 04:35:21;;;;;;;12.73;4.03;;;17.30;99.90;;;17.63;55.74;102064.13;5097056;28;20052;-68
2021/06/23 04:37:49;;;;;;;9.68;4.00;;;17.30;99.90;;;17.64;55.59;102058.75;5096945;28;20058;-68
2021/06/23 04:40:18;;;;;;;11.70;4.45;;;17.30;99.90;;;17.64;55.12;102073.91;5115081;28;20092;-68
2021/06/23 04:42:51;;;;;;;10.00;4.32;;;17.30;99.90;;;17.66;55.36;102066.75;5114309;28;20083;-68
2021/06/23 04:45:21;;;;;;;11.95;4.47;;;17.30;99.90;;;17.61;55.15;102071.28;5096417;28;20089;-68
2021/06/23 04:47:58;;;;;;;10.10;4.70;;;17.30;99.90;;;17.58;54.96;102068.66;5114889;28;20047;-68
2021/06/23 04:50:29;;;;;;;;;;;17.30;99.90;;;17.56;55.19;102060.66;5097074;28;20046;-68
2021/06/23 04:53:01;;;;;;;10.50;4.97;;;17.30;99.90;;;17.54;55.65;102067.81;5114963;28;19930;-68
2021/06/23 04:55:30;;;;;;;12.30;4.65;;;17.20;99.90;;;17.54;55.37;102069.59;5096456;28;20538;-68
2021/06/23 04:58:07;;;;;;;12.43;4.47;;;17.20;99.90;;;17.57;55.30;102072.25;5113563;28;20067;-68
2021/06/23 05:00:37;;;;;;;10.55;4.38;;;17.20;99.90;;;17.59;55.43;102070.44;5114465;28;20052;-68
2021/06/23 05:03:10;;;;;;;9.25;4.45;;;17.20;99.90;;;17.55;55.77;102072.28;5096473;28;20051;-68
2021/06/23 05:05:39;;;;;;;11.52;5.05;;;17.20;99.90;;;17.57;55.40;102074.91;5114596;28;20039;-69
2021/06/23 05:08:08;;;;;;;11.32;5.00;;;17.20;99.90;;;17.49;55.14;102074.13;5114550;28;20104;-69
2021/06/23 05:10:36;;;;;;;9.13;4.38;;;17.20;99.90;;;17.52;55.48;102064.25;5113522;28;20055;-69
2021/06/23 05:13:05;;;;;;;9.23;3.72;;;17.20;99.90;;;17.57;55.73;102066.88;5114514;28;20048;-69
2021/06/23 05:15:34;;;;;;;12.90;4.20;;;17.20;99.90;;;17.61;55.73;102064.16;5114312;28;20052;-69
2021/06/23 05:18:05;;;;;;;8.70;4.20;;;17.30;99.90;;;17.69;55.55;102069.41;5114533;28;20481;-69
2021/06/23 05:20:34;;;;;;;10.98;4.72;;;17.30;99.90;;;17.73;55.74;102076.47;5114417;28;20052;-69
2021/06/23 05:23:03;;;;;;;11.93;4.60;;;17.40;99.90;;;17.77;55.17;102080.84;5114196;28;20052;-69
2021/06/23 05:25:39;;;;;;;11.18;4.05;;;17.40;99.90;;;17.75;55.49;102077.34;5113899;28;20489;-69
2021/06/23 05:28:08;;;;;;;8.68;4.00;;;17.40;99.90;;;17.83;55.40;102078.09;5095891;28;20492;-69
2021/06/23 05:30:36;;;;;;;8.93;4.45;;;17.40;99.90;;;17.86;55.05;102080.75;5095740;28;20052;-69
2021/06/23 05:33:07;;;;;;;13.55;4.65;;;17.50;99.90;;;17.90;55.20;102080.66;5114099;28;20047;-69
2021/06/23 05:35:35;;;;;;;12.60;4.90;;;17.50;99.90;;;17.88;55.03;102079.81;5114246;28;20043;-69
2021/06/23 05:38:04;;;;;;;12.20;4.68;;;17.50;99.90;;;17.91;55.44;102085.13;5113772;28;20046;-69
2021/06/23 05:40:33;;;;;;;11.00;4.55;;;17.50;99.90;;;17.93;55.29;102085.97;5113820;28;20048;-69
2021/06/23 05:43:01;;;;;;;11.77;3.90;;;17.60;99.90;;;17.92;54.98;102081.50;5114186;28;20054;-69
2021/06/23 05:45:29;;;;;;;12.55;4.25;;;17.60;99.90;;;17.92;54.40;102083.34;5112495;28;20077;-69
2021/06/23 05:47:58;;;;;;;10.75;4.82;;;17.60;99.90;;;17.98;54.54;102086.78;5113844;28;20047;-70
2021/06/23 05:50:28;;;;;;;10.45;4.13;;;17.60;99.90;;;18.01;55.15;102080.50;5113091;28;20562;-69
2021/06/23 05:52:57;;;;;;;10.77;4.70;;;17.60;99.90;;;18.03;54.74;102090.28;5113788;28;20046;-69
2021/06/23 05:55:26;;;;;;;9.75;4.70;;;17.70;99.90;;;18.05;54.43;102087.59;5113622;28;20112;-69
2021/06/23 05:57:56;;;;;;;9.82;4.70;;;17.70;99.90;;;18.02;54.54;102104.56;5113358;28;20047;-69
2021/06/23 06:00:27;;;;;;;8.55;4.13;;;17.70;99.90;;;18.11;54.63;102089.28;5113737;28;20043;-69
2021/06/23 06:02:56;;;;;;;12.25;4.10;;;17.70;99.90;;;18.14;54.87;102092.78;5113561;28;20051;-69
2021/06/23 06:05:24;;;;;;;7.20;3.90;;;17.80;99.90;;;18.19;55.00;102090.94;5113625;28;20075;-69
2021/06/23 06:07:54;;;;;;;12.73;4.50;;;17.80;99.90;;;18.17;54.91;102084.72;5112316;28;20447;-69
2021/06/23 06:10:23;;;;;;;9.30;4.03;;;17.90;99.90;;;18.21;54.87;102088.22;5113544;28;20046;-69
2021/06/23 06:12:52;;;;;;;11.45;4.47;;;17.90;99.90;;;18.24;54.14;102094.41;5113198;28;20044;-69
2021/06/23 06:15:20;;;;;;;7.40;4.45;;;17.90;99.90;;;18.28;54.96;102101.50;5095123;28;20060;-69
2021/06/23 06:17:49;;;;;;;8.13;4.20;;;17.90;99.90;;;18.31;54.90;102100.56;5113346;28;20046;-69
2021/06/23 06:20:18;;;;;;;13.38;4.40;;;18.00;99.90;;;17.66;54.43;101981.13;5113679;28;20043;-69
2021/06/23 06:22:46;;;;;;;12.65;4.90;;;18.00;99.90;;;18.34;54.91;102096.03;5113134;28;20043;-69
2021/06/23 06:25:16;;;;;;;12.98;4.78;;;18.00;99.90;;;18.27;54.83;102080.97;5095057;28;20051;-69
2021/06/23 06:27:45;;;;;;;12.48;4.45;;;18.00;99.90;;;18.39;55.03;102098.66;5113094;28;20055;-70
2021/06/23 06:30:15;;;;;;;17.50;5.03;;;18.00;99.90;;;18.42;55.25;102099.50;5113299;28;20073;-69
2021/06/23 06:32:43;;;;;;;9.30;4.72;;;18.10;99.90;;;18.42;55.12;102103.94;5113050;28;20085;-69
2021/06/23 06:35:13;;;;;;;13.70;4.47;;;18.10;99.90;;;17.88;54.66;102012.00;5116456;28;20046;-69
2021/06/23 06:37:42;;;;;;;7.95;4.50;;;18.10;99.90;;;18.42;55.43;102106.63;5117281;28;20052;-69
2021/06/23 06:40:11;;;;;;;10.98;4.78;;;18.10;99.90;;;18.44;55.52;102103.06;5117536;28;20649;-69
2021/06/23 06:42:43;;;;;;;12.63;4.82;;;18.10;99.90;;;18.28;55.36;102104.16;5099348;28;20050;-69
2021/06/23 06:45:12;;;;;;;9.30;4.47;;;18.10;99.90;;;18.27;54.74;102105.09;5117383;28;20118;-69
2021/06/23 06:47:41;;;;;;;10.80;4.10;;;18.10;99.90;;;18.35;55.28;102119.22;5098941;28;20082;-70
2021/06/23 06:50:10;;;;;;;10.77;4.70;;;18.10;99.90;;;18.42;55.36;102120.94;5117263;28;20048;-69
2021/06/23 06:52:39;;;;;;;10.00;4.43;;;18.10;99.90;;;18.42;55.05;102110.22;5116968;28;20408;-69
2021/06/23 06:55:10;;;;;;;12.05;4.68;;;18.10;99.90;;;18.44;54.69;102116.44;5098787;28;20065;-69
2021/06/23 06:57:38;;;;;;;10.65;4.40;;;18.10;99.90;;;18.31;54.79;102105.91;5116843;28;20039;-66
2021/06/23 07:00:09;;;;;;;8.60;4.15;;;18.10;99.90;;;18.46;54.86;102114.63;5117112;28;20073;-67
2021/06/23 07:02:38;;;;;;;11.45;4.88;;;18.10;99.90;;;18.47;54.90;102124.41;5117140;28;20123;-67
2021/06/23 07:05:08;;;;;;;13.57;4.40;;;18.10;99.90;;;18.12;54.34;102120.53;5117136;28;20134;-67
2021/06/23 07:07:36;;;;;;;13.45;4.40;;;18.00;99.90;;;18.27;54.98;102121.16;5116897;28;20105;-67
2021/06/23 07:10:07;;;;;;;12.02;4.75;;;18.00;99.90;;;18.35;54.58;102111.19;5115329;28;20093;-67
2021/06/23 07:12:35;;;;;;;9.30;4.63;;;18.10;99.90;;;18.21;54.33;102115.00;5116918;28;20447;-67
2021/06/23 07:15:08;;;;;;;14.95;4.90;;;18.00;99.90;;;18.26;54.67;102119.38;5116570;28;20059;-67
2021/06/23 07:17:37;;;;;;;9.00;4.40;;;17.90;99.90;;;18.32;54.65;102108.56;5116926;28;20108;-64
2021/06/23 07:20:08;;;;;;;10.82;4.47;;;18.00;99.90;;;18.20;54.00;102091.78;5116459;28;20056;-65
2021/06/23 07:22:36;;;;;;;11.13;4.50;;;18.00;99.90;;;18.43;54.46;102116.44;5116663;28;20052;-64
2021/06/23 07:25:07;;;;;;;27.00;14.88;;;18.10;99.90;;;18.56;54.57;102113.53;5116544;28;20040;-64
2021/06/23 07:27:35;;;;;;;173.13;94.20;;;18.20;99.90;;;18.59;54.90;102113.50;5116280;28;20040;-63
2021/06/23 07:30:06;;;;;;;183.18;129.02;;;18.20;99.90;;;18.70;54.64;102115.97;5116480;28;20051;-62
2021/06/23 07:32:41;;;;;;;;;;;18.30;99.90;;;18.58;53.29;102114.38;5116498;28;20043;-63
2021/06/23 07:37:48;;;;;;;13.70;4.88;;;18.30;99.90;;;18.63;53.46;102117.00;5098301;28;20054;-67
2021/06/23 07:40:18;;;;;;;10.45;4.72;;;18.40;99.90;;;18.69;54.17;102124.94;5115975;28;20501;-65
2021/06/23 07:42:46;;;;;;;15.90;5.25;;;18.40;99.90;;;18.73;54.26;102116.81;5116245;28;20087;-65
2021/06/23 07:45:15;;;;;;;13.70;5.18;;;18.40;99.90;;;18.85;54.06;102127.31;5114588;28;20486;-66
2021/06/23 07:47:45;;;;;;;10.32;4.28;;;18.50;99.90;;;18.98;54.08;102133.34;5116161;28;20067;-66
2021/06/23 07:50:14;;;;;;;15.85;4.70;;;18.60;99.90;;;19.04;54.06;102133.22;5115931;28;20044;-65
2021/06/23 07:52:50;;;;;;;7.40;4.60;;;18.70;99.90;;;19.12;54.11;102136.66;5116025;28;20362;-65
2021/06/23 08:09:31;;;;;;;11.80;4.88;;;19.10;99.90;;;19.53;53.08;102127.81;5115528;28;20759;-65
2021/06/23 08:12:16;;;;;;;9.45;4.30;;;19.30;99.90;;;19.68;53.20;102122.09;5115363;28;20070;-65
2021/06/23 08:14:45;;;;;;;7.65;4.18;;;19.40;99.90;;;19.58;52.29;102088.31;5115402;28;20063;-64
2021/06/23 08:17:14;;;;;;;13.60;4.65;;;19.40;99.90;;;19.70;51.73;102122.94;5115552;28;20097;-65
2021/06/23 08:19:43;;;;;;;12.77;4.57;;;19.40;99.90;;;19.77;52.99;102127.25;5115504;28;20096;-65
2021/06/23 08:22:12;;;;;;;9.73;5.30;;;19.50;99.90;;;19.91;52.03;102133.22;5097308;28;20416;-65
2021/06/23 08:24:41;;;;;;;8.95;4.20;;;19.60;99.90;;;19.89;51.62;102127.00;5115327;28;20050;-65
2021/06/23 08:27:11;;;;;;;13.57;4.85;;;19.60;99.90;;;19.86;51.30;102126.19;5115515;28;20059;-65
2021/06/23 08:29:39;;;;;;;11.23;4.00;;;19.60;99.90;;;19.88;50.49;102125.22;5115140;28;20105;-65
2021/06/23 08:32:08;;;;;;;11.55;4.38;;;19.60;99.90;;;19.61;51.02;102124.03;5097012;28;20400;-65
2021/06/23 08:34:37;;;;;;;8.25;4.60;;;19.40;99.90;;;19.68;52.04;102124.78;5115164;28;20092;-65
2021/06/23 08:37:07;;;;;;;13.35;5.00;;;19.40;99.90;;;19.82;52.09;102133.44;5115287;28;20086;-65
2021/06/23 08:39:35;;;;;;;10.07;4.22;;;19.40;99.90;;;19.86;50.97;102136.94;5114860;28;20404;-65
2021/06/23 08:42:05;;;;;;;8.60;4.47;;;19.50;99.90;;;19.89;51.32;102131.47;5114823;28;20039;-65
2021/06/23 08:44:34;;;;;;;12.60;4.68;;;19.60;99.90;;;19.97;50.84;102130.41;5114831;28;20511;-64
2021/06/23 08:47:04;;;;;;;13.13;4.22;;;19.70;99.90;;;19.41;50.54;102037.69;5114876;28;20134;-65
2021/06/23 08:49:33;;;;;;;9.77;4.63;;;19.70;99.90;;;19.92;50.12;102112.63;5096673;28;20058;-65
2021/06/23 08:52:02;;;;;;;9.07;4.45;;;19.70;99.90;;;20.01;49.84;102140.16;5115130;28;20471;-63
2021/06/23 08:54:32;;;;;;;6.22;3.83;;;19.70;99.90;;;20.11;50.32;102140.81;5096526;28;20050;-62
2021/06/23 08:57:00;;;;;;;9.15;3.92;;;19.80;99.90;;;19.88;49.31;102135.94;5095931;28;20043;-62
2021/06/23 08:59:29;;;;;;;9.13;3.95;;;19.70;99.90;;;20.03;49.97;102141.00;5096531;28;20397;-63
2021/06/23 09:01:58;;;;;;;209.07;126.97;;;19.70;99.90;;;20.05;50.51;102133.78;5096428;28;20058;-62
2021/06/23 09:04:27;;;;;;;89.40;55.70;;;19.70;99.90;;;19.98;50.69;102137.50;5114585;28;20047;-62
2021/06/23 09:06:58;;;;;;;63.63;37.95;;;19.70;99.90;;;20.06;50.24;102134.66;5114513;28;20047;-65
2021/06/23 09:09:34;;;;;;;11.05;4.38;;;19.80;99.90;;;19.93;50.25;102142.13;5114421;28;20048;-65
2021/06/23 09:12:06;;;;;;;11.55;4.55;;;19.60;99.90;;;19.95;51.10;102137.59;5114295;28;20103;-65
2021/06/23 09:14:40;;;;;;;9.27;4.13;;;19.60;99.90;;;19.55;50.99;102067.78;5114095;28;20054;-66
2021/06/23 09:17:13;;;;;;;12.73;5.15;;;19.70;99.90;;;20.04;49.64;102134.69;5096141;28;20043;-65
2021/06/23 09:19:54;;;;;;;9.98;4.47;;;19.80;99.90;;;20.08;50.29;102133.72;5096053;28;20040;-66
2021/06/23 09:22:40;;;;;;;11.45;4.57;;;19.80;99.90;;;20.01;51.11;102132.09;5113972;28;20189;-66
2021/06/23 09:25:32;;;;;;;10.95;4.70;;;19.70;99.90;;;20.14;50.90;102130.88;5096047;28;20043;-66
2021/06/23 09:28:04;;;;;;;8.95;4.72;;;19.80;99.90;;;20.20;50.01;102124.50;5114202;28;20044;-67
2021/06/23 09:30:36;;;;;;;7.60;4.43;;;19.90;99.90;;;20.20;50.96;102133.47;5113954;28;20044;-66
2021/06/23 09:33:14;;;;;;;8.40;3.92;;;19.90;99.90;;;20.15;49.81;102113.81;5114399;28;20112;-66
2021/06/23 09:35:46;;;;;;;5.57;3.75;;;20.00;99.90;;;20.20;49.83;102136.16;5113150;28;20047;-66
2021/06/23 09:38:43;;;;;;;9.82;4.28;;;20.00;99.90;;;19.71;50.18;102030.72;5114087;28;20060;-68
2021/06/23 09:41:32;;;;;;;10.13;4.50;;;20.00;99.90;;;19.54;49.08;102122.41;5114038;28;20115;-69
2021/06/23 09:44:05;;;;;;;9.43;4.35;;;19.60;99.90;;;19.67;50.43;102131.94;5095774;28;20112;-70
2021/06/23 09:46:36;;;;;;;9.15;4.18;;;19.40;99.90;;;19.77;50.43;102135.31;5113510;28;20550;-70
2021/06/23 09:49:12;;;;;;;7.13;4.30;;;19.50;99.90;;;19.56;50.78;102135.78;5095684;28;20401;-70
2021/06/23 09:51:50;;;;;;;8.15;4.07;;;19.30;99.90;;;19.65;51.08;102131.09;5113804;28;20054;-69
2021/06/23 09:54:21;;;;;;;8.40;4.40;;;19.30;99.90;;;19.59;50.71;102133.00;5113574;28;20051;-69
2021/06/23 09:57:16;;;;;;;10.27;4.30;;;19.30;99.90;;;19.82;51.62;102135.22;5113540;28;20061;-70
2021/06/23 09:59:49;;;;;;;10.32;4.72;;;19.50;99.90;;;19.82;51.22;102129.84;5095452;28;20443;-69
2021/06/23 10:02:25;;;;;;;12.95;4.35;;;19.60;99.90;;;20.04;51.52;102145.44;5095463;28;20052;-70
2021/06/23 10:04:54;;;;;;;7.25;3.92;;;19.70;99.90;;;20.13;50.71;102139.84;5113412;28;20058;-69
2021/06/23 10:07:40;;;;;;;14.45;4.65;;;19.90;99.90;;;19.26;52.55;102136.38;5095227;28;20040;-69
2021/06/23 10:10:12;;;;;;;10.30;4.88;;;19.20;99.90;;;18.52;54.08;102140.44;5113094;28;20064;-69
2021/06/23 10:12:42;;;;;;;7.78;4.75;;;18.50;99.90;;;18.80;52.83;102123.84;5113850;28;20048;-69
2021/06/23 10:15:13;;;;;;;9.60;4.53;;;18.60;99.90;;;19.17;53.17;102136.53;5095044;28;20085;-70
2021/06/23 10:17:42;;;;;;;9.93;4.90;;;18.80;99.90;;;19.22;51.96;102134.69;5113446;28;20084;-69
2021/06/23 10:20:14;;;;;;;11.35;4.45;;;18.90;99.90;;;19.07;51.60;102149.25;5113371;28;20063;-70
2021/06/23 10:22:44;;;;;;;14.55;5.30;;;18.90;99.90;;;18.99;51.62;102140.47;5095215;28;20394;-70
2021/06/23 10:25:16;;;;;;;9.25;4.55;;;18.80;99.90;;;19.07;52.15;102141.22;5113432;28;20080;-69
2021/06/23 10:27:49;;;;;;;7.72;4.70;;;18.80;99.90;;;19.23;52.59;102141.78;5113244;28;20054;-70
2021/06/23 10:30:19;;;;;;;9.48;4.72;;;18.90;99.90;;;19.18;52.30;102141.00;5113108;28;20053;-69
2021/06/23 10:32:48;;;;;;;8.65;5.10;;;19.00;99.90;;;19.53;52.96;102149.28;5095073;28;20055;-69
2021/06/23 10:35:17;;;;;;;10.85;4.85;;;19.20;99.90;;;19.65;52.55;102149.00;5094931;28;20101;-69
2021/06/23 10:37:47;;;;;;;13.50;4.72;;;19.30;99.90;;;19.33;51.08;102149.69;5112998;28;20759;-66
2021/06/23 10:40:17;;;;;;;10.63;4.68;;;19.20;99.90;;;19.55;52.59;102152.81;5113252;28;20540;-66
2021/06/23 10:42:47;;;;;;;;;;;19.20;99.90;;;19.82;52.50;102149.53;5113731;28;20066;-66
2021/06/23 10:45:16;;;;;;;12.18;5.25;;;19.50;99.90;;;20.02;51.67;102158.03;5113469;28;19919;-66
2021/06/23 10:47:47;;;;;;;12.32;4.95;;;19.70;99.90;;;20.10;51.66;102160.53;5112831;28;20044;-66